createdAt,value
2019-03-21T00:00:50.382Z,41.90
2019-03-21T00:01:50.374Z,43.90
2019-03-21T00:02:50.361Z,40.40
2019-03-21T00:03:50.377Z,39.50
2019-03-21T00:04:50.338Z,39.40
2019-03-21T00:05:50.328Z,40.30
2019-03-21T00:06:50.316Z,35.90
2019-03-21T00:07:50.306Z,43.00
2019-03-21T00:08:50.296Z,41.30
2019-03-21T00:09:50.299Z,37.50
2019-03-21T00:10:50.269Z,36.30
2019-03-21T00:11:50.258Z,40.20
2019-03-21T00:12:50.247Z,38.20
2019-03-21T00:13:50.238Z,38.30
2019-03-21T00:14:50.254Z,40.10
2019-03-21T00:15:50.215Z,37.20
2019-03-21T00:16:50.203Z,40.20
2019-03-21T00:17:50.194Z,40.90
2019-03-21T00:18:50.181Z,38.20
2019-03-21T00:19:50.169Z,40.10
2019-03-21T00:20:50.175Z,38.10
2019-03-21T00:21:50.146Z,40.10
2019-03-21T00:22:50.134Z,41.30
2019-03-21T00:23:50.121Z,36.90
2019-03-21T00:24:50.110Z,36.60
2019-03-21T00:25:50.128Z,36.80
2019-03-21T00:26:50.087Z,37.00
2019-03-21T00:27:50.077Z,35.70
2019-03-21T00:28:50.064Z,40.00
2019-03-21T00:29:50.052Z,38.40
2019-03-21T00:30:50.042Z,35.60
2019-03-21T00:31:50.052Z,40.50
2019-03-21T00:32:50.022Z,37.20
2019-03-21T00:33:50.008Z,35.60
2019-03-21T00:34:50.000Z,41.60
2019-03-21T00:35:49.985Z,38.00
2019-03-21T00:36:50.004Z,34.30
2019-03-21T00:37:49.963Z,37.40
2019-03-21T00:38:49.951Z,36.80
2019-03-21T00:39:49.939Z,36.40
2019-03-21T00:40:49.930Z,37.00
2019-03-21T00:41:49.920Z,35.10
2019-03-21T00:42:49.924Z,35.70
2019-03-21T00:43:49.896Z,35.90
2019-03-21T00:44:49.882Z,37.30
2019-03-21T00:45:49.874Z,34.20
2019-03-21T00:46:49.862Z,32.70
2019-03-21T00:47:49.875Z,38.50
2019-03-21T00:48:49.840Z,33.60
2019-03-21T00:49:49.825Z,32.10
2019-03-21T00:50:49.861Z,35.90
2019-03-21T00:51:49.804Z,37.00
2019-03-21T00:52:49.790Z,34.70
2019-03-21T00:53:49.797Z,41.60
2019-03-21T00:54:49.770Z,35.60
2019-03-21T00:55:49.758Z,32.80
2019-03-21T00:56:49.750Z,35.10
2019-03-21T00:57:49.736Z,34.10
2019-03-21T00:58:49.751Z,33.10
2019-03-21T00:59:49.714Z,35.10
2019-03-21T01:00:49.706Z,36.00
2019-03-21T01:01:49.702Z,33.70
2019-03-21T01:02:49.683Z,35.60
2019-03-21T01:03:49.667Z,33.40
2019-03-21T01:04:49.676Z,32.60
2019-03-21T01:05:49.646Z,30.50
2019-03-21T01:06:49.635Z,33.50
2019-03-21T01:07:49.624Z,30.60
2019-03-21T01:08:49.613Z,32.90
2019-03-21T01:09:49.630Z,32.00
2019-03-21T01:10:49.612Z,33.30
2019-03-21T01:11:49.580Z,33.30
2019-03-21T01:12:49.566Z,35.00
2019-03-21T01:13:49.561Z,38.00
2019-03-21T01:14:49.545Z,33.30
2019-03-21T01:15:49.549Z,31.30
2019-03-21T01:16:49.522Z,35.40
2019-03-21T01:17:49.511Z,37.30
2019-03-21T01:18:49.497Z,35.20
2019-03-21T01:19:49.487Z,34.00
2019-03-21T01:20:49.504Z,33.00
2019-03-21T01:21:49.464Z,36.40
2019-03-21T01:22:49.455Z,30.20
2019-03-21T01:23:49.442Z,34.50
2019-03-21T01:24:49.431Z,33.80
2019-03-21T01:25:49.417Z,33.40
2019-03-21T01:26:49.428Z,31.90
2019-03-21T01:27:49.395Z,35.00
2019-03-21T01:28:49.385Z,34.40
2019-03-21T01:29:49.375Z,28.70
2019-03-21T01:30:49.361Z,33.40
2019-03-21T01:31:49.380Z,33.00
2019-03-21T01:32:49.339Z,27.60
2019-03-21T01:33:49.329Z,33.10
2019-03-21T01:34:49.317Z,33.30
2019-03-21T01:35:49.312Z,31.80
2019-03-21T01:36:49.297Z,31.70
2019-03-21T01:37:49.299Z,34.00
2019-03-21T01:38:49.271Z,29.80
2019-03-21T01:39:49.263Z,29.90
2019-03-21T01:40:49.250Z,33.10
2019-03-21T01:41:49.240Z,29.90
2019-03-21T01:42:49.379Z,33.00
2019-03-21T01:43:49.218Z,32.20
2019-03-21T01:44:49.204Z,30.50
2019-03-21T01:45:49.196Z,29.90
2019-03-21T01:46:49.180Z,30.60
2019-03-21T01:47:49.168Z,31.00
2019-03-21T01:48:49.178Z,31.90
2019-03-21T01:49:49.147Z,30.00
2019-03-21T01:50:49.139Z,30.40
2019-03-21T01:51:49.123Z,30.30
2019-03-21T01:52:49.116Z,32.60
2019-03-21T01:53:49.127Z,29.40
2019-03-21T01:54:49.089Z,32.80
2019-03-21T01:55:49.081Z,28.90
2019-03-21T01:56:49.068Z,28.10
2019-03-21T01:57:49.059Z,29.00
2019-03-21T01:58:49.044Z,29.20
2019-03-21T01:59:49.050Z,31.90
2019-03-21T02:00:49.028Z,32.00
2019-03-21T02:01:49.008Z,29.30
2019-03-21T02:02:48.998Z,29.20
2019-03-21T02:03:48.988Z,34.80
2019-03-21T02:04:49.005Z,28.50
2019-03-21T02:05:48.970Z,31.20
2019-03-21T02:06:48.957Z,28.60
2019-03-21T02:07:48.947Z,31.90
2019-03-21T02:08:48.930Z,34.40
2019-03-21T02:09:48.920Z,32.40
2019-03-21T02:10:48.931Z,32.80
2019-03-21T02:11:48.897Z,31.20
2019-03-21T02:12:48.888Z,30.30
2019-03-21T02:13:48.876Z,29.40
2019-03-21T02:14:52.374Z,28.50
2019-03-21T02:15:50.765Z,31.00
2019-03-21T02:16:48.840Z,31.80
2019-03-21T02:17:48.829Z,31.30
2019-03-21T02:18:48.817Z,33.20
2019-03-21T02:19:48.806Z,32.30
2019-03-21T02:20:48.825Z,34.70
2019-03-21T02:21:48.782Z,30.30
2019-03-21T02:22:48.810Z,30.80
2019-03-21T02:23:48.763Z,31.60
2019-03-21T02:24:48.752Z,35.00
2019-03-21T02:25:48.740Z,33.20
2019-03-21T02:26:48.751Z,34.50
2019-03-21T02:27:48.714Z,27.80
2019-03-21T02:28:48.707Z,32.50
2019-03-21T02:29:48.695Z,30.40
2019-03-21T02:30:48.682Z,32.70
2019-03-21T02:31:48.701Z,35.90
2019-03-21T02:32:48.662Z,26.70
2019-03-21T02:33:48.656Z,34.30
2019-03-21T02:34:48.640Z,33.30
2019-03-21T02:35:48.634Z,29.10
2019-03-21T02:36:48.617Z,30.00
2019-03-21T02:37:48.623Z,28.90
2019-03-21T02:38:48.601Z,32.10
2019-03-21T02:39:59.429Z,28.80
2019-03-21T02:40:49.579Z,29.60
2019-03-21T02:41:48.561Z,30.90
2019-03-21T02:42:48.566Z,28.30
2019-03-21T02:43:48.536Z,29.50
2019-03-21T02:44:48.582Z,35.80
2019-03-21T02:45:48.515Z,27.60
2019-03-21T02:46:48.512Z,26.70
2019-03-21T02:47:48.521Z,29.60
2019-03-21T02:48:48.481Z,32.90
2019-03-21T02:49:48.468Z,30.80
2019-03-21T02:50:49.381Z,28.20
2019-03-21T02:51:48.448Z,34.10
2019-03-21T02:52:48.438Z,28.70
2019-03-21T02:53:48.441Z,28.80
2019-03-21T02:54:48.412Z,31.20
2019-03-21T02:55:48.403Z,31.50
2019-03-21T02:56:48.393Z,32.00
2019-03-21T02:57:48.375Z,30.10
2019-03-21T02:58:48.395Z,33.00
2019-03-21T02:59:48.356Z,26.70
2019-03-21T03:00:48.350Z,30.90
2019-03-21T03:01:48.336Z,32.90
2019-03-21T03:02:48.322Z,28.10
2019-03-21T03:03:48.309Z,30.20
2019-03-21T03:04:48.318Z,31.50
2019-03-21T03:05:48.348Z,31.20
2019-03-21T03:06:48.276Z,30.50
2019-03-21T03:07:48.267Z,28.50
2019-03-21T03:08:48.255Z,28.70
2019-03-21T03:09:48.269Z,31.40
2019-03-21T03:10:48.232Z,32.40
2019-03-21T03:11:48.225Z,29.70
2019-03-21T03:12:48.208Z,30.50
2019-03-21T03:13:48.198Z,31.30
2019-03-21T03:14:48.190Z,29.70
2019-03-21T03:15:48.192Z,31.40
2019-03-21T03:16:48.165Z,31.20
2019-03-21T03:17:48.153Z,31.00
2019-03-21T03:18:48.142Z,33.40
2019-03-21T03:19:48.157Z,29.90
2019-03-21T03:20:48.152Z,30.40
2019-03-21T03:21:48.114Z,29.60
2019-03-21T03:22:48.096Z,29.20
2019-03-21T03:23:48.086Z,29.40
2019-03-21T03:24:48.078Z,29.10
2019-03-21T03:25:50.824Z,29.00
2019-03-21T03:26:48.066Z,30.20
2019-03-21T03:27:48.039Z,30.20
2019-03-21T03:28:48.030Z,31.90
2019-03-21T03:29:48.026Z,31.90
2019-03-21T03:30:48.017Z,32.50
2019-03-21T03:31:48.043Z,32.80
2019-03-21T03:32:47.985Z,31.30
2019-03-21T03:33:47.973Z,29.20
2019-03-21T03:34:47.983Z,32.60
2019-03-21T03:35:47.963Z,31.10
2019-03-21T03:36:47.939Z,32.70
2019-03-21T03:37:47.943Z,30.00
2019-03-21T03:38:47.917Z,29.00
2019-03-21T03:39:47.905Z,31.30
2019-03-21T03:40:47.894Z,29.40
2019-03-21T03:41:47.886Z,32.50
2019-03-21T03:42:47.902Z,28.70
2019-03-21T03:43:47.865Z,31.30
2019-03-21T03:44:47.859Z,30.00
2019-03-21T03:45:47.845Z,33.20
2019-03-21T03:46:47.828Z,31.80
2019-03-21T03:47:47.819Z,27.90
2019-03-21T03:48:47.821Z,30.20
2019-03-21T03:49:47.793Z,28.40
2019-03-21T03:50:47.784Z,30.70
2019-03-21T03:51:47.781Z,32.10
2019-03-21T03:52:47.762Z,32.20
2019-03-21T03:53:47.783Z,31.90
2019-03-21T03:54:47.738Z,30.40
2019-03-21T03:55:47.727Z,28.80
2019-03-21T03:56:47.716Z,34.10
2019-03-21T03:57:47.712Z,27.70
2019-03-21T03:58:47.699Z,29.60
2019-03-21T03:59:47.702Z,32.40
2019-03-21T04:00:47.671Z,28.80
2019-03-21T04:01:47.660Z,30.40
2019-03-21T04:02:47.661Z,30.20
2019-03-21T04:03:47.645Z,33.00
2019-03-21T04:04:47.648Z,32.60
2019-03-21T04:05:47.639Z,26.70
2019-03-21T04:06:47.613Z,32.30
2019-03-21T04:07:47.592Z,28.60
2019-03-21T04:08:47.584Z,30.30
2019-03-21T04:09:47.570Z,32.60
2019-03-21T04:10:47.581Z,28.00
2019-03-21T04:11:47.545Z,29.70
2019-03-21T04:12:47.537Z,30.60
2019-03-21T04:13:47.527Z,30.40
2019-03-21T04:14:47.513Z,28.40
2019-03-21T04:15:53.162Z,28.40
2019-03-21T04:16:48.488Z,27.80
2019-03-21T04:17:47.478Z,31.20
2019-03-21T04:18:47.470Z,26.40
2019-03-21T04:19:47.455Z,29.40
2019-03-21T04:20:47.460Z,30.90
2019-03-21T04:21:47.435Z,28.00
2019-03-21T04:22:47.425Z,29.20
2019-03-21T04:23:47.412Z,30.40
2019-03-21T04:24:47.400Z,27.20
2019-03-21T04:25:47.407Z,32.60
2019-03-21T04:26:47.382Z,30.80
2019-03-21T04:27:47.366Z,26.90
2019-03-21T04:28:47.358Z,31.80
2019-03-21T04:29:47.345Z,30.90
2019-03-21T04:30:47.355Z,27.20
2019-03-21T04:31:47.328Z,26.90
2019-03-21T04:32:47.311Z,29.30
2019-03-21T04:33:47.303Z,26.40
2019-03-21T04:34:47.294Z,28.80
2019-03-21T04:35:47.293Z,26.00
2019-03-21T04:36:47.272Z,28.50
2019-03-21T04:37:47.255Z,28.70
2019-03-21T04:38:47.249Z,30.10
2019-03-21T04:39:47.244Z,27.40
2019-03-21T04:40:47.242Z,29.40
2019-03-21T04:41:56.447Z,28.70
2019-03-21T04:42:47.198Z,28.60
2019-03-21T04:43:47.192Z,28.70
2019-03-21T04:44:47.182Z,26.30
2019-03-21T04:45:47.181Z,29.20
2019-03-21T04:46:47.155Z,29.60
2019-03-21T04:47:47.143Z,35.80
2019-03-21T04:48:47.130Z,32.70
2019-03-21T04:49:47.124Z,32.90
2019-03-21T04:50:47.129Z,26.50
2019-03-21T04:51:47.103Z,28.60
2019-03-21T04:52:47.087Z,25.60
2019-03-21T04:53:47.078Z,28.10
2019-03-21T04:54:47.064Z,25.10
2019-03-21T04:55:47.070Z,27.20
2019-03-21T04:56:47.043Z,30.20
2019-03-21T04:57:47.033Z,27.80
2019-03-21T04:58:47.021Z,27.10
2019-03-21T04:59:47.008Z,30.30
2019-03-21T05:00:47.015Z,29.10
2019-03-21T05:01:46.984Z,28.00
2019-03-21T05:02:46.987Z,29.50
2019-03-21T05:03:46.964Z,31.30
2019-03-21T05:04:46.950Z,26.90
2019-03-21T05:05:46.957Z,30.20
2019-03-21T05:06:46.934Z,32.10
2019-03-21T05:07:46.920Z,29.60
2019-03-21T05:08:46.907Z,31.20
2019-03-21T05:09:46.897Z,29.50
2019-03-21T05:10:46.901Z,27.80
2019-03-21T05:11:46.874Z,28.80
2019-03-21T05:12:46.868Z,27.60
2019-03-21T05:13:46.850Z,29.90
2019-03-21T05:14:46.844Z,26.90
2019-03-21T05:15:46.849Z,27.20
2019-03-21T05:16:46.819Z,30.60
2019-03-21T05:17:46.806Z,27.20
2019-03-21T05:18:46.797Z,26.90
2019-03-21T05:19:46.784Z,32.80
2019-03-21T05:20:46.792Z,29.00
2019-03-21T05:21:46.762Z,31.40
2019-03-21T05:22:46.753Z,29.10
2019-03-21T05:23:47.452Z,26.10
2019-03-21T05:24:46.727Z,28.10
2019-03-21T05:25:46.733Z,29.90
2019-03-21T05:26:46.708Z,31.60
2019-03-21T05:27:46.694Z,25.30
2019-03-21T05:28:46.687Z,30.90
2019-03-21T05:29:46.675Z,26.80
2019-03-21T05:30:46.682Z,30.80
2019-03-21T05:31:46.649Z,32.10
2019-03-21T05:32:46.638Z,26.50
2019-03-21T05:33:46.627Z,32.00
2019-03-21T05:34:46.619Z,26.60
2019-03-21T05:35:46.621Z,27.30
2019-03-21T05:36:46.593Z,28.00
2019-03-21T05:37:46.592Z,29.40
2019-03-21T05:38:46.575Z,32.00
2019-03-21T05:39:46.563Z,24.30
2019-03-21T05:40:46.566Z,25.50
2019-03-21T05:41:46.542Z,28.70
2019-03-21T05:42:46.532Z,29.40
2019-03-21T05:43:46.519Z,31.00
2019-03-21T05:44:46.508Z,33.30
2019-03-21T05:45:46.509Z,29.60
2019-03-21T05:46:46.484Z,33.50
2019-03-21T05:47:46.480Z,28.50
2019-03-21T05:48:46.463Z,30.70
2019-03-21T05:49:46.453Z,34.00
2019-03-21T05:50:46.460Z,31.30
2019-03-21T05:51:46.425Z,34.60
2019-03-21T05:52:46.415Z,27.70
2019-03-21T05:53:46.405Z,25.70
2019-03-21T05:54:46.393Z,29.00
2019-03-21T05:55:46.400Z,28.10
2019-03-21T05:56:46.372Z,29.60
2019-03-21T05:57:46.356Z,28.90
2019-03-21T05:58:46.351Z,25.90
2019-03-21T05:59:55.992Z,29.20
2019-03-21T06:00:55.472Z,26.40
2019-03-21T06:01:56.070Z,30.50
2019-03-21T06:02:54.609Z,28.20
2019-03-21T06:03:55.650Z,30.60
2019-03-21T06:04:54.689Z,25.00
2019-03-21T06:05:53.851Z,23.10
2019-03-21T06:06:55.764Z,24.60
2019-03-21T06:07:46.246Z,32.00
2019-03-21T06:08:46.765Z,29.80
2019-03-21T06:09:46.224Z,22.90
2019-03-21T06:10:46.229Z,25.70
2019-03-21T06:11:46.201Z,23.20
2019-03-21T06:12:46.191Z,27.50
2019-03-21T06:13:46.179Z,27.50
2019-03-21T06:14:46.168Z,24.70
2019-03-21T06:15:46.171Z,25.60
2019-03-21T06:16:46.145Z,27.90
2019-03-21T06:17:46.133Z,25.00
2019-03-21T06:18:46.129Z,28.00
2019-03-21T06:19:46.112Z,28.70
2019-03-21T06:20:46.115Z,25.80
2019-03-21T06:21:46.093Z,22.00
2019-03-21T06:22:46.079Z,26.70
2019-03-21T06:23:46.066Z,25.00
2019-03-21T06:24:46.057Z,25.90
2019-03-21T06:25:46.060Z,27.40
2019-03-21T06:26:46.035Z,30.10
2019-03-21T06:27:46.029Z,25.90
2019-03-21T06:28:46.011Z,28.70
2019-03-21T06:29:45.999Z,23.20
2019-03-21T06:30:46.007Z,25.80
2019-03-21T06:31:45.977Z,26.50
2019-03-21T06:32:45.965Z,29.80
2019-03-21T06:33:45.957Z,24.90
2019-03-21T06:34:45.944Z,23.50
2019-03-21T06:35:45.950Z,22.90
2019-03-21T06:36:45.920Z,21.20
2019-03-21T06:37:45.913Z,26.30
2019-03-21T06:38:45.898Z,26.30
2019-03-21T06:39:45.888Z,22.90
2019-03-21T06:40:45.896Z,23.90
2019-03-21T06:41:45.872Z,20.30
2019-03-21T06:42:45.854Z,21.40
2019-03-21T06:43:45.841Z,22.70
2019-03-21T06:44:45.830Z,22.90
2019-03-21T06:45:48.153Z,20.50
2019-03-21T06:46:49.742Z,27.50
2019-03-21T06:47:45.798Z,24.10
2019-03-21T06:48:45.787Z,22.50
2019-03-21T06:49:46.637Z,22.70
2019-03-21T06:50:45.780Z,22.30
2019-03-21T06:51:45.750Z,24.60
2019-03-21T06:52:45.741Z,23.00
2019-03-21T06:53:45.727Z,24.00
2019-03-21T06:54:45.717Z,27.90
2019-03-21T06:55:45.723Z,22.30
2019-03-21T06:56:45.694Z,24.80
2019-03-21T06:57:45.682Z,24.80
2019-03-21T06:58:45.672Z,19.90
2019-03-21T06:59:45.664Z,22.60
2019-03-21T07:00:45.666Z,19.10
2019-03-21T07:01:45.643Z,21.50
2019-03-21T07:02:45.626Z,22.20
2019-03-21T07:03:45.620Z,18.80
2019-03-21T07:04:45.604Z,18.00
2019-03-21T07:05:45.609Z,20.40
2019-03-21T07:06:45.585Z,18.40
2019-03-21T07:07:45.569Z,20.80
2019-03-21T07:08:45.561Z,19.30
2019-03-21T07:09:45.558Z,22.60
2019-03-21T07:10:45.555Z,24.00
2019-03-21T07:11:45.526Z,18.60
2019-03-21T07:12:45.514Z,19.50
2019-03-21T07:13:45.502Z,19.80
2019-03-21T07:14:45.493Z,21.70
2019-03-21T07:15:45.502Z,19.40
2019-03-21T07:16:45.474Z,17.30
2019-03-21T07:17:45.458Z,20.70
2019-03-21T07:18:45.448Z,17.60
2019-03-21T07:19:45.440Z,18.50
2019-03-21T07:20:45.440Z,18.30
2019-03-21T07:21:45.417Z,20.70
2019-03-21T07:22:45.402Z,19.80
2019-03-21T07:23:45.391Z,20.50
2019-03-21T07:24:45.382Z,19.70
2019-03-21T07:25:45.383Z,21.30
2019-03-21T07:26:45.358Z,19.00
2019-03-21T07:27:45.347Z,21.40
2019-03-21T07:28:45.337Z,21.80
2019-03-21T07:29:45.324Z,19.50
2019-03-21T07:30:45.331Z,19.40
2019-03-21T07:31:45.304Z,18.60
2019-03-21T07:32:45.292Z,20.50
2019-03-21T07:33:45.278Z,20.00
2019-03-21T07:34:45.267Z,21.60
2019-03-21T07:35:45.273Z,22.50
2019-03-21T07:36:45.246Z,19.10
2019-03-21T07:37:45.235Z,18.30
2019-03-21T07:38:45.223Z,16.80
2019-03-21T07:39:45.217Z,18.30
2019-03-21T07:40:45.218Z,20.20
2019-03-21T07:41:45.188Z,20.70
2019-03-21T07:42:45.176Z,20.70
2019-03-21T07:43:45.167Z,24.10
2019-03-21T07:44:45.155Z,19.30
2019-03-21T07:45:45.159Z,19.90
2019-03-21T07:46:45.130Z,19.80
2019-03-21T07:47:45.122Z,18.80
2019-03-21T07:48:45.110Z,19.60
2019-03-21T07:49:45.101Z,19.60
2019-03-21T07:50:45.103Z,18.70
2019-03-21T07:51:45.388Z,20.30
2019-03-21T07:52:45.062Z,18.10
2019-03-21T07:53:45.051Z,17.60
2019-03-21T07:54:45.040Z,20.60
2019-03-21T07:55:45.053Z,19.80
2019-03-21T07:56:45.020Z,23.00
2019-03-21T07:57:45.009Z,19.60
2019-03-21T07:58:45.003Z,20.60
2019-03-21T07:59:44.986Z,19.80
2019-03-21T08:00:44.994Z,21.70
2019-03-21T08:01:44.964Z,20.20
2019-03-21T08:02:44.957Z,20.20
2019-03-21T08:03:44.942Z,17.60
2019-03-21T08:04:44.930Z,20.80
2019-03-21T08:05:44.938Z,21.10
2019-03-21T08:06:44.912Z,16.80
2019-03-21T08:07:44.898Z,21.70
2019-03-21T08:08:44.883Z,21.20
2019-03-21T08:09:44.876Z,19.50
2019-03-21T08:10:44.882Z,17.80
2019-03-21T08:11:44.858Z,22.50
2019-03-21T08:12:44.839Z,19.80
2019-03-21T08:13:44.829Z,20.80
2019-03-21T08:14:44.825Z,20.00
2019-03-21T08:15:44.821Z,19.20
2019-03-21T08:16:44.793Z,21.00
2019-03-21T08:17:44.799Z,18.70
2019-03-21T08:18:44.769Z,18.80
2019-03-21T08:19:44.761Z,18.60
2019-03-21T08:20:55.655Z,17.60
2019-03-21T08:21:45.735Z,19.90
2019-03-21T08:22:44.722Z,18.80
2019-03-21T08:23:44.715Z,19.90
2019-03-21T08:24:44.700Z,18.60
2019-03-21T08:25:44.705Z,18.00
2019-03-21T08:26:44.680Z,17.90
2019-03-21T08:27:44.668Z,20.20
2019-03-21T08:28:44.659Z,16.70
2019-03-21T08:29:44.641Z,18.70
2019-03-21T08:30:44.650Z,17.80
2019-03-21T08:31:44.619Z,17.40
2019-03-21T08:32:44.607Z,21.10
2019-03-21T08:33:44.601Z,26.80
2019-03-21T08:34:44.585Z,20.70
2019-03-21T08:35:44.592Z,17.80
2019-03-21T08:36:44.562Z,19.80
2019-03-21T08:37:44.550Z,17.20
2019-03-21T08:38:44.537Z,19.00
2019-03-21T08:39:44.528Z,17.80
2019-03-21T08:40:44.532Z,19.30
2019-03-21T08:41:44.505Z,22.40
2019-03-21T08:42:44.495Z,17.00
2019-03-21T08:43:44.484Z,17.00
2019-03-21T08:44:44.472Z,21.10
2019-03-21T08:45:44.479Z,17.80
2019-03-21T08:46:44.449Z,17.20
2019-03-21T08:47:44.440Z,17.80
2019-03-21T08:48:44.431Z,17.30
2019-03-21T08:49:44.415Z,17.90
2019-03-21T08:50:44.423Z,17.90
2019-03-21T08:51:44.393Z,16.40
2019-03-21T08:52:44.382Z,17.90
2019-03-21T08:53:44.374Z,15.70
2019-03-21T08:54:44.360Z,17.60
2019-03-21T08:55:44.365Z,20.40
2019-03-21T08:56:44.337Z,16.60
2019-03-21T08:57:44.327Z,16.50
2019-03-21T08:58:44.316Z,14.80
2019-03-21T08:59:44.303Z,14.60
2019-03-21T09:00:44.311Z,14.20
2019-03-21T09:01:44.283Z,16.10
2019-03-21T09:02:44.272Z,14.30
2019-03-21T09:03:44.259Z,15.60
2019-03-21T09:04:44.248Z,15.70
2019-03-21T09:05:44.256Z,14.60
2019-03-21T09:06:44.226Z,15.50
2019-03-21T09:07:44.214Z,15.80
2019-03-21T09:08:44.206Z,15.60
2019-03-21T09:09:44.192Z,15.30
2019-03-21T09:10:44.199Z,16.40
2019-03-21T09:11:44.170Z,14.50
2019-03-21T09:12:44.160Z,14.60
2019-03-21T09:13:44.149Z,13.60
2019-03-21T09:14:44.139Z,16.40
2019-03-21T09:15:44.146Z,14.50
2019-03-21T09:16:44.116Z,16.70
2019-03-21T09:17:44.104Z,16.10
2019-03-21T09:18:44.091Z,18.90
2019-03-21T09:19:44.081Z,16.30
2019-03-21T09:20:44.088Z,15.30
2019-03-21T09:21:44.059Z,16.80
2019-03-21T09:22:44.050Z,16.40
2019-03-21T09:23:44.041Z,16.60
2019-03-21T09:24:44.026Z,15.70
2019-03-21T09:25:44.040Z,16.60
2019-03-21T09:26:44.006Z,18.80
2019-03-21T09:27:43.996Z,16.20
2019-03-21T09:28:43.981Z,16.00
2019-03-21T09:29:53.141Z,16.10
2019-03-21T09:30:44.978Z,15.30
2019-03-21T09:31:43.948Z,17.00
2019-03-21T09:32:43.938Z,15.80
2019-03-21T09:33:43.927Z,16.90
2019-03-21T09:34:43.917Z,15.70
2019-03-21T09:35:43.922Z,16.10
2019-03-21T09:36:43.895Z,17.00
2019-03-21T09:37:43.881Z,18.00
2019-03-21T09:38:43.874Z,15.00
2019-03-21T09:39:43.861Z,15.60
2019-03-21T09:40:43.864Z,14.90
2019-03-21T09:41:43.837Z,16.60
2019-03-21T09:42:43.826Z,15.50
2019-03-21T09:43:43.813Z,14.00
2019-03-21T09:44:43.806Z,13.30
2019-03-21T09:45:43.809Z,12.40
2019-03-21T09:46:50.772Z,14.30
2019-03-21T09:47:44.767Z,13.10
2019-03-21T09:48:43.755Z,14.70
2019-03-21T09:49:43.749Z,15.80
2019-03-21T09:50:43.762Z,12.60
2019-03-21T09:51:43.726Z,13.40
2019-03-21T09:52:43.716Z,13.20
2019-03-21T09:53:43.703Z,12.70
2019-03-21T09:54:43.691Z,12.50
2019-03-21T09:55:43.699Z,13.70
2019-03-21T09:56:43.674Z,11.00
2019-03-21T09:57:43.657Z,11.00
2019-03-21T09:58:43.646Z,13.40
2019-03-21T09:59:43.642Z,14.10
2019-03-21T10:00:43.641Z,11.20
2019-03-21T10:01:43.617Z,11.60
2019-03-21T10:02:43.603Z,10.20
2019-03-21T10:03:43.592Z,11.70
2019-03-21T10:04:43.585Z,12.20
2019-03-21T10:05:43.588Z,10.40
2019-03-21T10:06:43.560Z,11.20
2019-03-21T10:07:43.552Z,13.00
2019-03-21T10:08:43.541Z,12.50
2019-03-21T10:09:43.526Z,10.90
2019-03-21T10:10:43.531Z,11.90
2019-03-21T10:11:43.507Z,11.20
2019-03-21T10:12:43.494Z,14.40
2019-03-21T10:13:43.482Z,10.80
2019-03-21T10:14:43.473Z,10.40
2019-03-21T10:15:43.480Z,12.00
2019-03-21T10:16:43.451Z,11.50
2019-03-21T10:17:43.443Z,12.50
2019-03-21T10:18:43.428Z,12.20
2019-03-21T10:19:43.418Z,11.40
2019-03-21T10:20:43.433Z,12.60
2019-03-21T10:21:43.894Z,11.20
2019-03-21T10:22:43.387Z,10.70
2019-03-21T10:23:43.379Z,12.20
2019-03-21T10:24:43.366Z,12.80
2019-03-21T10:25:43.370Z,10.10
2019-03-21T10:26:43.345Z,10.20
2019-03-21T10:27:43.334Z,10.50
2019-03-21T10:28:43.324Z,11.30
2019-03-21T10:29:43.312Z,9.90
2019-03-21T10:30:43.322Z,10.30
2019-03-21T10:31:43.292Z,9.90
2019-03-21T10:32:43.277Z,10.20
2019-03-21T10:33:43.271Z,11.80
2019-03-21T10:34:43.258Z,9.80
2019-03-21T10:35:43.265Z,11.10
2019-03-21T10:36:43.236Z,10.60
2019-03-21T10:37:43.229Z,10.90
2019-03-21T10:38:43.214Z,10.20
2019-03-21T10:39:43.207Z,9.50
2019-03-21T10:40:43.213Z,10.50
2019-03-21T10:41:43.188Z,10.60
2019-03-21T10:42:43.178Z,10.00
2019-03-21T10:43:43.166Z,10.40
2019-03-21T10:44:43.153Z,10.60
2019-03-21T10:45:43.161Z,9.60
2019-03-21T10:46:43.138Z,10.10
2019-03-21T10:47:43.125Z,9.40
2019-03-21T10:48:43.110Z,9.70
2019-03-21T10:49:43.102Z,10.50
2019-03-21T10:50:43.106Z,9.30
2019-03-21T10:51:54.142Z,10.80
2019-03-21T10:52:44.068Z,10.00
2019-03-21T10:53:43.058Z,9.30
2019-03-21T10:54:43.053Z,11.90
2019-03-21T10:55:43.053Z,10.60
2019-03-21T10:56:43.026Z,11.20
2019-03-21T10:57:43.015Z,12.10
2019-03-21T10:58:43.007Z,10.70
2019-03-21T10:59:42.993Z,10.70
2019-03-21T11:00:43.015Z,9.80
2019-03-21T11:01:42.974Z,10.90
2019-03-21T11:02:43.849Z,11.60
2019-03-21T11:03:42.953Z,9.90
2019-03-21T11:04:42.945Z,10.30
2019-03-21T11:05:42.950Z,10.20
2019-03-21T11:06:42.921Z,10.20
2019-03-21T11:07:42.910Z,10.10
2019-03-21T11:08:42.907Z,10.20
2019-03-21T11:09:42.890Z,10.10
2019-03-21T11:10:42.896Z,9.80
2019-03-21T11:11:42.870Z,12.80
2019-03-21T11:12:42.859Z,10.70
2019-03-21T11:13:42.851Z,10.30
2019-03-21T11:14:42.841Z,12.50
2019-03-21T11:15:42.844Z,12.50
2019-03-21T11:16:42.820Z,11.00
2019-03-21T11:17:42.807Z,12.10
2019-03-21T11:18:42.795Z,10.30
2019-03-21T11:19:42.786Z,11.30
2019-03-21T11:20:42.797Z,11.00
2019-03-21T11:21:42.766Z,11.10
2019-03-21T11:22:42.758Z,11.00
2019-03-21T11:23:42.753Z,11.10
2019-03-21T11:24:42.735Z,10.50
2019-03-21T11:25:42.739Z,10.90
2019-03-21T11:26:42.713Z,10.50
2019-03-21T11:27:42.704Z,11.20
2019-03-21T11:28:42.693Z,14.30
2019-03-21T11:29:42.682Z,11.90
2019-03-21T11:30:42.691Z,14.50
2019-03-21T11:31:42.665Z,13.60
2019-03-21T11:32:42.653Z,13.60
2019-03-21T11:33:42.639Z,13.20
2019-03-21T11:34:42.628Z,14.10
2019-03-21T11:35:42.636Z,15.30
2019-03-21T11:36:42.609Z,13.90
2019-03-21T11:37:42.597Z,15.20
2019-03-21T11:38:42.590Z,14.40
2019-03-21T11:39:42.578Z,14.60
2019-03-21T11:40:42.583Z,16.10
2019-03-21T11:41:42.555Z,14.40
2019-03-21T11:42:42.542Z,15.50
2019-03-21T11:43:42.534Z,16.70
2019-03-21T11:44:42.525Z,16.30
2019-03-21T11:45:42.527Z,18.20
2019-03-21T11:46:42.499Z,16.60
2019-03-21T11:47:42.493Z,15.90
2019-03-21T11:48:42.476Z,18.00
2019-03-21T11:49:42.477Z,15.10
2019-03-21T11:50:42.487Z,17.60
2019-03-21T11:51:42.443Z,18.20
2019-03-21T11:52:42.435Z,17.70
2019-03-21T11:53:42.422Z,16.90
2019-03-21T11:54:42.411Z,18.00
2019-03-21T11:55:42.419Z,18.20
2019-03-21T11:56:42.390Z,17.40
2019-03-21T11:57:42.381Z,18.20
2019-03-21T11:58:42.367Z,17.00
2019-03-21T11:59:51.530Z,19.30
2019-03-21T12:00:45.194Z,18.70
2019-03-21T12:01:42.332Z,20.80
2019-03-21T12:02:42.321Z,18.00
2019-03-21T12:03:42.312Z,20.50
2019-03-21T12:04:42.301Z,18.50
2019-03-21T12:05:42.307Z,18.50
2019-03-21T12:06:42.279Z,18.00
2019-03-21T12:07:42.266Z,18.40
2019-03-21T12:08:42.256Z,16.70
2019-03-21T12:09:42.243Z,20.00
2019-03-21T12:10:42.251Z,17.60
2019-03-21T12:11:42.220Z,18.20
2019-03-21T12:12:42.212Z,21.20
2019-03-21T12:13:42.200Z,20.80
2019-03-21T12:14:42.190Z,19.40
2019-03-21T12:15:42.193Z,20.80
2019-03-21T12:16:42.168Z,20.70
2019-03-21T12:17:42.155Z,17.90
2019-03-21T12:18:42.146Z,18.40
2019-03-21T12:19:42.133Z,19.40
2019-03-21T12:20:42.139Z,20.30
2019-03-21T12:21:42.109Z,19.80
2019-03-21T12:22:42.101Z,17.80
2019-03-21T12:23:42.087Z,20.90
2019-03-21T12:24:42.077Z,21.90
2019-03-21T12:25:42.084Z,19.20
2019-03-21T12:26:42.059Z,20.40
2019-03-21T12:27:42.042Z,21.30
2019-03-21T12:28:42.884Z,20.40
2019-03-21T12:29:43.880Z,19.40
2019-03-21T12:30:42.028Z,19.60
2019-03-21T12:31:50.418Z,21.30
2019-03-21T12:32:50.453Z,19.40
2019-03-21T12:33:51.497Z,20.90
2019-03-21T12:34:50.036Z,23.00
2019-03-21T12:35:49.622Z,22.10
2019-03-21T12:36:50.126Z,21.20
2019-03-21T12:37:51.155Z,22.20
2019-03-21T12:38:51.703Z,25.10
2019-03-21T12:39:51.231Z,22.80
2019-03-21T12:40:41.917Z,22.00
2019-03-21T12:41:41.886Z,21.80
2019-03-21T12:42:41.875Z,21.00
2019-03-21T12:43:41.870Z,19.60
2019-03-21T12:44:41.855Z,20.90
2019-03-21T12:45:41.863Z,20.00
2019-03-21T12:46:41.836Z,19.70
2019-03-21T12:47:41.825Z,19.40
2019-03-21T12:48:41.810Z,20.60
2019-03-21T12:49:41.798Z,19.40
2019-03-21T12:50:41.814Z,19.50
2019-03-21T12:51:41.780Z,20.90
2019-03-21T12:52:41.849Z,22.70
2019-03-21T12:53:41.763Z,21.20